sensor_id;sensor_type;location;lat;lon;timestamp;pressure;altitude;pressure_sealevel;temperature;humidity
24996;BME280;13016;52.162;21.034;2023-03-23T00:02:09;99767.77;;;14.98;55.57
24996;BME280;13016;52.162;21.034;2023-03-23T00:04:37;99761.52;;;15.08;55.28
24996;BME280;13016;52.162;21.034;2023-03-23T00:07:10;99765.56;;;15.01;55.24
24996;BME280;13016;52.162;21.034;2023-03-23T00:09:44;99764.80;;;15.01;55.27
24996;BME280;13016;52.162;21.034;2023-03-23T00:12:13;99764.55;;;15.04;55.19
24996;BME280;13016;52.162;21.034;2023-03-23T00:14:39;99763.20;;;14.95;55.28
24996;BME280;13016;52.162;21.034;2023-03-23T00:18:31;99757.94;;;14.99;55.38
24996;BME280;13016;52.162;21.034;2023-03-23T00:22:08;99757.97;;;14.74;55.93
24996;BME280;13016;52.162;21.034;2023-03-23T00:25:55;99757.08;;;14.82;55.89
24996;BME280;13016;52.162;21.034;2023-03-23T00:28:25;99755.91;;;14.77;55.90
24996;BME280;13016;52.162;21.034;2023-03-23T00:31:04;99756.36;;;14.84;55.80
24996;BME280;13016;52.162;21.034;2023-03-23T00:33:41;99751.48;;;14.73;55.93
24996;BME280;13016;52.162;21.034;2023-03-23T00:36:12;99749.38;;;14.67;56.25
24996;BME280;13016;52.162;21.034;2023-03-23T00:42:21;99742.98;;;14.84;55.72
24996;BME280;13016;52.162;21.034;2023-03-23T00:45:57;99737.77;;;14.55;56.51
24996;BME280;13016;52.162;21.034;2023-03-23T00:49:27;99741.70;;;14.77;56.04
24996;BME280;13016;52.162;21.034;2023-03-23T00:53:07;99729.09;;;14.51;56.69
24996;BME280;13016;52.162;21.034;2023-03-23T00:55:36;99729.31;;;14.47;56.95
24996;BME280;13016;52.162;21.034;2023-03-23T00:58:04;99728.09;;;14.54;56.82
24996;BME280;13016;52.162;21.034;2023-03-23T01:00:33;99730.01;;;14.67;56.45
24996;BME280;13016;52.162;21.034;2023-03-23T01:03:02;99721.63;;;14.63;56.44
24996;BME280;13016;52.162;21.034;2023-03-23T01:05:34;99720.66;;;14.64;56.48
24996;BME280;13016;52.162;21.034;2023-03-23T01:09:34;99720.66;;;14.88;55.96
24996;BME280;13016;52.162;21.034;2023-03-23T01:13:11;99716.18;;;14.85;55.88
24996;BME280;13016;52.162;21.034;2023-03-23T01:16:44;99716.05;;;14.94;55.97
24996;BME280;13016;52.162;21.034;2023-03-23T01:19:13;99718.42;;;15.02;55.52
24996;BME280;13016;52.162;21.034;2023-03-23T01:21:42;99713.67;;;15.09;55.12
24996;BME280;13016;52.162;21.034;2023-03-23T01:24:11;99713.34;;;15.17;54.94
24996;BME280;13016;52.162;21.034;2023-03-23T01:26:40;99710.93;;;15.15;54.75
24996;BME280;13016;52.162;21.034;2023-03-23T01:29:15;99714.73;;;14.99;55.30
24996;BME280;13016;52.162;21.034;2023-03-23T01:33:30;99726.94;;;15.21;55.05
24996;BME280;13016;52.162;21.034;2023-03-23T01:36:52;99724.59;;;15.29;54.61
24996;BME280;13016;52.162;21.034;2023-03-23T01:40:27;99722.36;;;15.38;54.49
24996;BME280;13016;52.162;21.034;2023-03-23T01:42:58;99721.56;;;15.43;54.29
24996;BME280;13016;52.162;21.034;2023-03-23T01:48:09;99722.16;;;15.48;53.97
24996;BME280;13016;52.162;21.034;2023-03-23T01:50:55;99722.39;;;15.11;54.70
24996;BME280;13016;52.162;21.034;2023-03-23T01:53:30;99718.80;;;15.21;54.56
24996;BME280;13016;52.162;21.034;2023-03-23T02:11:19;99704.66;;;15.57;53.85
24996;BME280;13016;52.162;21.034;2023-03-23T02:28:22;99685.10;;;15.07;54.80
24996;BME280;13016;52.162;21.034;2023-03-23T02:39:28;99685.05;;;14.87;55.59
24996;BME280;13016;52.162;21.034;2023-03-23T02:44:29;99689.27;;;14.92;55.55
24996;BME280;13016;52.162;21.034;2023-03-23T02:47:07;99680.26;;;14.77;55.65
24996;BME280;13016;52.162;21.034;2023-03-23T02:49:40;99678.94;;;14.68;56.10
24996;BME280;13016;52.162;21.034;2023-03-23T02:52:19;99674.86;;;14.74;56.03
24996;BME280;13016;52.162;21.034;2023-03-23T02:54:53;99672.71;;;14.74;56.04
24996;BME280;13016;52.162;21.034;2023-03-23T02:57:29;99668.33;;;14.70;56.05
24996;BME280;13016;52.162;21.034;2023-03-23T03:00:48;99675.13;;;14.79;55.93
24996;BME280;13016;52.162;21.034;2023-03-23T03:03:23;99673.64;;;14.72;56.08
24996;BME280;13016;52.162;21.034;2023-03-23T03:11:23;99686.58;;;14.82;55.97
24996;BME280;13016;52.162;21.034;2023-03-23T03:14:02;99684.70;;;14.83;55.82
24996;BME280;13016;52.162;21.034;2023-03-23T03:17:21;99684.36;;;14.89;55.89
24996;BME280;13016;52.162;21.034;2023-03-23T03:21:18;99676.88;;;14.95;55.69
24996;BME280;13016;52.162;21.034;2023-03-23T03:24:31;99676.95;;;14.75;56.16
24996;BME280;13016;52.162;21.034;2023-03-23T03:28:07;99681.05;;;14.86;56.07
24996;BME280;13016;52.162;21.034;2023-03-23T03:31:44;99670.58;;;14.84;55.80
24996;BME280;13016;52.162;21.034;2023-03-23T03:34:15;99673.10;;;14.66;56.38
24996;BME280;13016;52.162;21.034;2023-03-23T03:36:49;99680.35;;;14.78;56.33
24996;BME280;13016;52.162;21.034;2023-03-23T03:39:25;99687.38;;;14.87;55.99
24996;BME280;13016;52.162;21.034;2023-03-23T03:41:55;99686.52;;;14.84;55.87
24996;BME280;13016;52.162;21.034;2023-03-23T03:46:51;99696.20;;;14.92;55.82
24996;BME280;13016;52.162;21.034;2023-03-23T03:49:19;99696.60;;;14.89;55.71
24996;BME280;13016;52.162;21.034;2023-03-23T03:54:25;99697.60;;;14.92;55.52
24996;BME280;13016;52.162;21.034;2023-03-23T03:58:17;99697.77;;;15.10;55.05
24996;BME280;13016;52.162;21.034;2023-03-23T04:02:21;99694.00;;;14.88;55.31
24996;BME280;13016;52.162;21.034;2023-03-23T04:05:38;99680.30;;;14.71;55.84
24996;BME280;13016;52.162;21.034;2023-03-23T04:09:15;99669.34;;;14.57;56.43
24996;BME280;13016;52.162;21.034;2023-03-23T04:13:25;99662.62;;;14.47;56.73
24996;BME280;13016;52.162;21.034;2023-03-23T04:16:36;99665.02;;;14.57;56.67
24996;BME280;13016;52.162;21.034;2023-03-23T04:20:18;99660.20;;;14.66;56.18
24996;BME280;13016;52.162;21.034;2023-03-23T04:23:45;99665.58;;;14.71;56.08
24996;BME280;13016;52.162;21.034;2023-03-23T04:26:10;99667.77;;;14.68;55.97
24996;BME280;13016;52.162;21.034;2023-03-23T04:28:42;99662.29;;;14.66;55.82
24996;BME280;13016;52.162;21.034;2023-03-23T04:31:12;99665.29;;;14.66;56.00
24996;BME280;13016;52.162;21.034;2023-03-23T04:33:44;99665.83;;;14.72;55.81
24996;BME280;13016;52.162;21.034;2023-03-23T04:36:10;99662.28;;;14.66;55.87
24996;BME280;13016;52.162;21.034;2023-03-23T04:40:07;99662.49;;;14.70;55.97
24996;BME280;13016;52.162;21.034;2023-03-23T04:43:41;99661.98;;;14.59;55.94
24996;BME280;13016;52.162;21.034;2023-03-23T04:46:11;99669.20;;;14.54;56.09
24996;BME280;13016;52.162;21.034;2023-03-23T04:48:40;99665.80;;;14.37;56.40
24996;BME280;13016;52.162;21.034;2023-03-23T04:51:10;99660.98;;;14.23;57.03
24996;BME280;13016;52.162;21.034;2023-03-23T04:53:43;99660.80;;;14.27;57.07
24996;BME280;13016;52.162;21.034;2023-03-23T04:56:10;99659.70;;;14.11;57.36
24996;BME280;13016;52.162;21.034;2023-03-23T05:00:05;99664.52;;;14.21;57.61
24996;BME280;13016;52.162;21.034;2023-03-23T05:14:24;99664.44;;;15.09;55.07
24996;BME280;13016;52.162;21.034;2023-03-23T05:19:31;99659.64;;;15.01;54.66
24996;BME280;13016;52.162;21.034;2023-03-23T05:22:07;99656.84;;;14.63;55.60
24996;BME280;13016;52.162;21.034;2023-03-23T05:24:40;99655.97;;;14.45;56.40
24996;BME280;13016;52.162;21.034;2023-03-23T05:27:13;99658.91;;;14.48;56.61
24996;BME280;13016;52.162;21.034;2023-03-23T05:29:44;99657.41;;;14.35;56.88
24996;BME280;13016;52.162;21.034;2023-03-23T05:32:32;99659.86;;;14.44;57.00
24996;BME280;13016;52.162;21.034;2023-03-23T05:34:58;99655.77;;;14.46;56.74
24996;BME280;13016;52.162;21.034;2023-03-23T05:37:25;99647.94;;;14.42;56.90
24996;BME280;13016;52.162;21.034;2023-03-23T05:39:50;99652.16;;;14.52;56.94
24996;BME280;13016;52.162;21.034;2023-03-23T05:42:15;99653.82;;;14.48;56.85
24996;BME280;13016;52.162;21.034;2023-03-23T05:44:41;99661.98;;;14.54;57.08
24996;BME280;13016;52.162;21.034;2023-03-23T05:47:06;99664.15;;;14.55;56.90
24996;BME280;13016;52.162;21.034;2023-03-23T05:49:31;99659.08;;;14.62;56.94
24996;BME280;13016;52.162;21.034;2023-03-23T05:51:56;99660.27;;;14.67;56.57
24996;BME280;13016;52.162;21.034;2023-03-23T05:54:22;99659.39;;;14.76;56.51
24996;BME280;13016;52.162;21.034;2023-03-23T05:56:47;99660.83;;;14.82;56.31
24996;BME280;13016;52.162;21.034;2023-03-23T05:59:12;99664.60;;;14.62;56.67
24996;BME280;13016;52.162;21.034;2023-03-23T06:01:37;99666.84;;;14.69;56.60
24996;BME280;13016;52.162;21.034;2023-03-23T06:04:03;99664.44;;;14.72;56.69
24996;BME280;13016;52.162;21.034;2023-03-23T06:06:32;99672.05;;;14.90;56.62
24996;BME280;13016;52.162;21.034;2023-03-23T06:08:59;99668.12;;;15.02;55.95
24996;BME280;13016;52.162;21.034;2023-03-23T06:11:25;99669.20;;;15.11;55.79
24996;BME280;13016;52.162;21.034;2023-03-23T06:13:50;99663.25;;;15.03;55.77
24996;BME280;13016;52.162;21.034;2023-03-23T06:16:16;99665.73;;;15.07;55.80
24996;BME280;13016;52.162;21.034;2023-03-23T06:18:42;99667.20;;;15.04;55.92
24996;BME280;13016;52.162;21.034;2023-03-23T06:21:14;99668.15;;;15.17;55.67
24996;BME280;13016;52.162;21.034;2023-03-23T06:23:39;99665.60;;;15.14;55.81
24996;BME280;13016;52.162;21.034;2023-03-23T06:26:07;99666.05;;;15.32;55.62
24996;BME280;13016;52.162;21.034;2023-03-23T06:28:38;99662.80;;;15.36;55.43
24996;BME280;13016;52.162;21.034;2023-03-23T06:31:05;99665.52;;;15.40;55.20
24996;BME280;13016;52.162;21.034;2023-03-23T06:33:30;99672.87;;;15.43;55.44
24996;BME280;13016;52.162;21.034;2023-03-23T06:38:41;99680.23;;;15.92;54.44
24996;BME280;13016;52.162;21.034;2023-03-23T06:41:06;99679.27;;;16.03;53.68
24996;BME280;13016;52.162;21.034;2023-03-23T06:43:31;99678.95;;;16.09;53.69
24996;BME280;13016;52.162;21.034;2023-03-23T06:46:00;99684.03;;;16.25;53.17
24996;BME280;13016;52.162;21.034;2023-03-23T06:48:25;99683.46;;;16.25;53.26
24996;BME280;13016;52.162;21.034;2023-03-23T06:50:50;99685.38;;;16.31;52.94
24996;BME280;13016;52.162;21.034;2023-03-23T06:53:23;99683.05;;;16.29;53.29
24996;BME280;13016;52.162;21.034;2023-03-23T06:55:49;99684.02;;;16.50;53.02
24996;BME280;13016;52.162;21.034;2023-03-23T06:58:14;99685.46;;;16.59;52.50
24996;BME280;13016;52.162;21.034;2023-03-23T07:00:39;99686.27;;;16.89;52.13
24996;BME280;13016;52.162;21.034;2023-03-23T07:03:04;99687.31;;;17.27;51.52
24996;BME280;13016;52.162;21.034;2023-03-23T07:05:30;99688.98;;;17.46;50.51
24996;BME280;13016;52.162;21.034;2023-03-23T07:07:55;99688.19;;;17.47;50.42
24996;BME280;13016;52.162;21.034;2023-03-23T07:10:23;99690.02;;;17.33;50.58
24996;BME280;13016;52.162;21.034;2023-03-23T07:12:50;99691.83;;;17.55;50.27
24996;BME280;13016;52.162;21.034;2023-03-23T07:15:15;99689.11;;;17.82;49.66
24996;BME280;13016;52.162;21.034;2023-03-23T07:17:40;99686.90;;;17.98;49.05
24996;BME280;13016;52.162;21.034;2023-03-23T07:22:45;99684.39;;;17.57;49.52
24996;BME280;13016;52.162;21.034;2023-03-23T07:27:50;99687.04;;;18.10;48.70
24996;BME280;13016;52.162;21.034;2023-03-23T07:30:15;99691.88;;;18.36;48.20
24996;BME280;13016;52.162;21.034;2023-03-23T07:32:41;99685.02;;;18.33;47.71
24996;BME280;13016;52.162;21.034;2023-03-23T07:35:07;99685.12;;;18.49;47.11
24996;BME280;13016;52.162;21.034;2023-03-23T07:37:40;99690.73;;;18.72;46.56
24996;BME280;13016;52.162;21.034;2023-03-23T07:40:18;99692.55;;;18.72;46.60
24996;BME280;13016;52.162;21.034;2023-03-23T07:42:51;99695.19;;;18.89;46.38
24996;BME280;13016;52.162;21.034;2023-03-23T07:45:17;99701.48;;;18.95;46.36
24996;BME280;13016;52.162;21.034;2023-03-23T07:50:21;99701.23;;;18.98;45.99
24996;BME280;13016;52.162;21.034;2023-03-23T07:52:47;99703.46;;;19.15;45.67
24996;BME280;13016;52.162;21.034;2023-03-23T07:55:32;99698.57;;;19.41;45.33
24996;BME280;13016;52.162;21.034;2023-03-23T07:57:59;99700.16;;;19.53;44.95
24996;BME280;13016;52.162;21.034;2023-03-23T08:00:57;99695.54;;;19.57;44.99
24996;BME280;13016;52.162;21.034;2023-03-23T08:03:50;99695.17;;;19.39;45.26
24996;BME280;13016;52.162;21.034;2023-03-23T08:06:27;99695.30;;;19.62;44.55
24996;BME280;13016;52.162;21.034;2023-03-23T08:08:53;99698.02;;;19.62;44.77
24996;BME280;13016;52.162;21.034;2023-03-23T08:11:20;99688.83;;;19.71;44.79
24996;BME280;13016;52.162;21.034;2023-03-23T08:14:06;99687.57;;;19.81;44.15
24996;BME280;13016;52.162;21.034;2023-03-23T08:16:32;99685.10;;;20.06;43.78
24996;BME280;13016;52.162;21.034;2023-03-23T08:24:26;99675.92;;;20.13;43.10
24996;BME280;13016;52.162;21.034;2023-03-23T08:26:52;99674.93;;;20.44;42.66
24996;BME280;13016;52.162;21.034;2023-03-23T08:29:17;99669.88;;;20.69;42.20
24996;BME280;13016;52.162;21.034;2023-03-23T08:31:43;99665.39;;;20.82;41.91
24996;BME280;13016;52.162;21.034;2023-03-23T08:34:08;99659.27;;;20.93;41.51
24996;BME280;13016;52.162;21.034;2023-03-23T08:36:35;99657.35;;;20.92;40.90
24996;BME280;13016;52.162;21.034;2023-03-23T08:39:00;99658.60;;;21.08;40.87
24996;BME280;13016;52.162;21.034;2023-03-23T08:41:26;99648.52;;;21.15;40.44
24996;BME280;13016;52.162;21.034;2023-03-23T08:43:51;99646.73;;;21.25;40.30
24996;BME280;13016;52.162;21.034;2023-03-23T08:46:17;99641.30;;;21.37;39.82
24996;BME280;13016;52.162;21.034;2023-03-23T08:48:42;99641.05;;;21.32;39.88
24996;BME280;13016;52.162;21.034;2023-03-23T08:51:33;99646.75;;;21.50;39.81
24996;BME280;13016;52.162;21.034;2023-03-23T08:53:59;99647.08;;;21.61;38.95
24996;BME280;13016;52.162;21.034;2023-03-23T08:56:25;99646.96;;;21.53;39.01
24996;BME280;13016;52.162;21.034;2023-03-23T08:58:50;99648.98;;;21.15;39.24
24996;BME280;13016;52.162;21.034;2023-03-23T09:01:24;99654.16;;;21.39;39.27
24996;BME280;13016;52.162;21.034;2023-03-23T09:04:12;99654.52;;;21.21;38.88
24996;BME280;13016;52.162;21.034;2023-03-23T09:06:58;99646.20;;;20.99;39.25
24996;BME280;13016;52.162;21.034;2023-03-23T09:09:24;99648.36;;;20.95;39.59
24996;BME280;13016;52.162;21.034;2023-03-23T09:11:49;99649.36;;;21.07;39.40
24996;BME280;13016;52.162;21.034;2023-03-23T09:14:15;99654.98;;;21.09;39.26
24996;BME280;13016;52.162;21.034;2023-03-23T09:16:40;99649.17;;;20.85;39.83
24996;BME280;13016;52.162;21.034;2023-03-23T09:19:05;99649.02;;;20.91;39.92
24996;BME280;13016;52.162;21.034;2023-03-23T09:21:30;99649.06;;;21.11;39.40
24996;BME280;13016;52.162;21.034;2023-03-23T09:23:57;99651.26;;;21.23;39.06
24996;BME280;13016;52.162;21.034;2023-03-23T09:26:22;99651.79;;;21.23;39.14
24996;BME280;13016;52.162;21.034;2023-03-23T09:28:50;99652.83;;;21.06;39.12
24996;BME280;13016;52.162;21.034;2023-03-23T09:31:15;99650.68;;;20.96;39.00
24996;BME280;13016;52.162;21.034;2023-03-23T09:33:41;99648.39;;;20.66;39.52
24996;BME280;13016;52.162;21.034;2023-03-23T09:36:06;99649.58;;;20.62;40.03
24996;BME280;13016;52.162;21.034;2023-03-23T09:38:32;99645.40;;;20.65;40.17
24996;BME280;13016;52.162;21.034;2023-03-23T09:41:26;99642.36;;;20.90;39.71
24996;BME280;13016;52.162;21.034;2023-03-23T09:44:16;99641.34;;;21.11;39.20
24996;BME280;13016;52.162;21.034;2023-03-23T09:52:52;99622.67;;;21.28;38.56
24996;BME280;13016;52.162;21.034;2023-03-23T09:55:22;99614.04;;;21.29;38.66
24996;BME280;13016;52.162;21.034;2023-03-23T09:58:10;99614.44;;;21.26;38.87
24996;BME280;13016;52.162;21.034;2023-03-23T10:09:53;99604.09;;;21.87;37.47
24996;BME280;13016;52.162;21.034;2023-03-23T10:12:33;99608.45;;;21.69;37.77
24996;BME280;13016;52.162;21.034;2023-03-23T10:17:29;99601.06;;;21.95;37.03
24996;BME280;13016;52.162;21.034;2023-03-23T10:20:19;99593.30;;;21.94;36.89
24996;BME280;13016;52.162;21.034;2023-03-23T10:23:01;99592.98;;;22.08;36.40
24996;BME280;13016;52.162;21.034;2023-03-23T10:25:33;99584.71;;;21.98;36.48
24996;BME280;13016;52.162;21.034;2023-03-23T10:30:56;99587.52;;;22.33;36.55
24996;BME280;13016;52.162;21.034;2023-03-23T10:33:47;99582.85;;;22.26;35.36
24996;BME280;13016;52.162;21.034;2023-03-23T10:39:24;99590.05;;;22.34;35.79
24996;BME280;13016;52.162;21.034;2023-03-23T10:41:51;99583.04;;;22.54;35.41
24996;BME280;13016;52.162;21.034;2023-03-23T10:44:22;99586.40;;;22.57;35.45
24996;BME280;13016;52.162;21.034;2023-03-23T10:47:04;99583.88;;;22.49;35.25
24996;BME280;13016;52.162;21.034;2023-03-23T10:52:43;99581.89;;;22.54;34.97
24996;BME280;13016;52.162;21.034;2023-03-23T10:55:13;99577.81;;;22.49;34.71
24996;BME280;13016;52.162;21.034;2023-03-23T10:57:43;99579.36;;;22.73;34.57
24996;BME280;13016;52.162;21.034;2023-03-23T11:00:25;99580.96;;;22.69;34.46
24996;BME280;13016;52.162;21.034;2023-03-23T11:05:53;99567.79;;;22.92;34.49
24996;BME280;13016;52.162;21.034;2023-03-23T11:08:54;99561.77;;;22.91;34.24
24996;BME280;13016;52.162;21.034;2023-03-23T11:11:40;99568.15;;;22.76;34.60
24996;BME280;13016;52.162;21.034;2023-03-23T11:14:25;99555.87;;;23.07;34.47
24996;BME280;13016;52.162;21.034;2023-03-23T11:19:38;99556.96;;;23.68;33.96
24996;BME280;13016;52.162;21.034;2023-03-23T11:24:28;99548.95;;;23.96;31.77
24996;BME280;13016;52.162;21.034;2023-03-23T11:26:56;99548.49;;;24.00;30.66
24996;BME280;13016;52.162;21.034;2023-03-23T11:29:56;99544.37;;;24.11;30.62
24996;BME280;13016;52.162;21.034;2023-03-23T11:32:44;99535.72;;;23.93;30.45
24996;BME280;13016;52.162;21.034;2023-03-23T11:35:52;99533.64;;;23.72;30.71
24996;BME280;13016;52.162;21.034;2023-03-23T11:38:20;99530.38;;;23.93;30.74
24996;BME280;13016;52.162;21.034;2023-03-23T11:40:51;99518.02;;;23.59;31.27
24996;BME280;13016;52.162;21.034;2023-03-23T11:43:22;99525.56;;;23.69;31.20
24996;BME280;13016;52.162;21.034;2023-03-23T11:51:52;99513.78;;;23.85;31.10
24996;BME280;13016;52.162;21.034;2023-03-23T11:57:28;99505.37;;;23.73;31.07
24996;BME280;13016;52.162;21.034;2023-03-23T12:00:05;99496.84;;;23.60;31.63
24996;BME280;13016;52.162;21.034;2023-03-23T12:17:23;99484.92;;;24.10;31.41
24996;BME280;13016;52.162;21.034;2023-03-23T12:20:32;99480.94;;;24.21;31.22
24996;BME280;13016;52.162;21.034;2023-03-23T12:32:54;99464.91;;;23.94;31.24
24996;BME280;13016;52.162;21.034;2023-03-23T12:35:44;99454.01;;;24.13;31.23
24996;BME280;13016;52.162;21.034;2023-03-23T12:38:33;99458.33;;;24.05;31.36
24996;BME280;13016;52.162;21.034;2023-03-23T12:41:24;99458.40;;;23.65;31.52
24996;BME280;13016;52.162;21.034;2023-03-23T12:44:33;99461.20;;;23.82;31.60
24996;BME280;13016;52.162;21.034;2023-03-23T12:49:58;99457.80;;;24.16;31.01
24996;BME280;13016;52.162;21.034;2023-03-23T12:55:04;99454.80;;;24.08;31.48
24996;BME280;13016;52.162;21.034;2023-03-23T12:57:36;99458.16;;;24.20;31.24
24996;BME280;13016;52.162;21.034;2023-03-23T13:00:24;99456.44;;;24.10;31.37
24996;BME280;13016;52.162;21.034;2023-03-23T13:03:20;99463.31;;;24.00;31.93
24996;BME280;13016;52.162;21.034;2023-03-23T13:06:27;99459.61;;;24.05;31.25
24996;BME280;13016;52.162;21.034;2023-03-23T13:12:36;99459.31;;;24.18;30.93
24996;BME280;13016;52.162;21.034;2023-03-23T13:15:30;99450.80;;;24.07;31.14
24996;BME280;13016;52.162;21.034;2023-03-23T13:18:36;99450.02;;;24.04;31.65
24996;BME280;13016;52.162;21.034;2023-03-23T13:21:15;99449.30;;;24.11;31.65
24996;BME280;13016;52.162;21.034;2023-03-23T13:23:48;99449.00;;;24.20;31.78
24996;BME280;13016;52.162;21.034;2023-03-23T13:26:20;99446.03;;;24.23;31.53
24996;BME280;13016;52.162;21.034;2023-03-23T13:31:31;99449.43;;;24.06;31.80
24996;BME280;13016;52.162;21.034;2023-03-23T13:34:04;99446.73;;;23.95;31.95
24996;BME280;13016;52.162;21.034;2023-03-23T13:36:40;99443.41;;;23.88;31.91
24996;BME280;13016;52.162;21.034;2023-03-23T13:42:49;99442.57;;;23.72;32.42
24996;BME280;13016;52.162;21.034;2023-03-23T13:45:46;99443.67;;;23.74;32.57
24996;BME280;13016;52.162;21.034;2023-03-23T13:48:25;99448.66;;;23.69;32.08
24996;BME280;13016;52.162;21.034;2023-03-23T13:51:00;99451.64;;;23.79;31.30
24996;BME280;13016;52.162;21.034;2023-03-23T13:53:31;99447.41;;;23.76;30.96
24996;BME280;13016;52.162;21.034;2023-03-23T13:59:05;99441.52;;;23.76;31.40
24996;BME280;13016;52.162;21.034;2023-03-23T14:01:38;99443.12;;;23.60;31.82
24996;BME280;13016;52.162;21.034;2023-03-23T14:04:10;99443.61;;;23.40;31.87
24996;BME280;13016;52.162;21.034;2023-03-23T14:06:37;99451.87;;;23.64;31.80
24996;BME280;13016;52.162;21.034;2023-03-23T14:11:58;99460.39;;;23.51;32.29
24996;BME280;13016;52.162;21.034;2023-03-23T14:15:19;99460.96;;;23.56;32.22
24996;BME280;13016;52.162;21.034;2023-03-23T14:17:24;99466.73;;;23.16;33.03
24996;BME280;13016;52.162;21.034;2023-03-23T14:19:54;99469.35;;;23.10;33.06
24996;BME280;13016;52.162;21.034;2023-03-23T14:22:25;99467.42;;;23.02;33.24
24996;BME280;13016;52.162;21.034;2023-03-23T14:25:00;99467.15;;;23.04;33.11
24996;BME280;13016;52.162;21.034;2023-03-23T14:27:26;99471.63;;;23.28;32.70
24996;BME280;13016;52.162;21.034;2023-03-23T14:30:00;99479.42;;;23.25;33.01
24996;BME280;13016;52.162;21.034;2023-03-23T14:32:29;99480.14;;;23.17;33.34
24996;BME280;13016;52.162;21.034;2023-03-23T14:34:57;99482.45;;;23.17;33.13
24996;BME280;13016;52.162;21.034;2023-03-23T14:37:24;99484.94;;;23.24;33.13
24996;BME280;13016;52.162;21.034;2023-03-23T14:40:15;99488.83;;;23.34;33.18
24996;BME280;13016;52.162;21.034;2023-03-23T14:42:45;99487.96;;;23.23;33.47
24996;BME280;13016;52.162;21.034;2023-03-23T14:45:19;99495.93;;;22.93;33.81
24996;BME280;13016;52.162;21.034;2023-03-23T14:47:56;99500.35;;;22.82;33.97
24996;BME280;13016;52.162;21.034;2023-03-23T14:50:28;99504.27;;;22.61;34.46
24996;BME280;13016;52.162;21.034;2023-03-23T14:53:53;99506.31;;;22.59;34.51
24996;BME280;13016;52.162;21.034;2023-03-23T14:55:54;99512.50;;;22.54;34.76
24996;BME280;13016;52.162;21.034;2023-03-23T14:58:22;99511.76;;;22.46;35.02
24996;BME280;13016;52.162;21.034;2023-03-23T15:01:09;99513.92;;;22.30;35.49
24996;BME280;13016;52.162;21.034;2023-03-23T15:03:39;99511.65;;;22.15;35.74
24996;BME280;13016;52.162;21.034;2023-03-23T15:06:17;99513.09;;;22.02;35.89
24996;BME280;13016;52.162;21.034;2023-03-23T15:08:49;99513.36;;;21.92;35.96
24996;BME280;13016;52.162;21.034;2023-03-23T15:11:35;99516.61;;;22.00;35.85
24996;BME280;13016;52.162;21.034;2023-03-23T15:16:35;99515.11;;;22.10;35.90
24996;BME280;13016;52.162;21.034;2023-03-23T15:19:13;99513.56;;;21.94;36.13
24996;BME280;13016;52.162;21.034;2023-03-23T15:24:32;99514.89;;;21.86;36.43
24996;BME280;13016;52.162;21.034;2023-03-23T15:27:17;99514.05;;;21.88;36.48
24996;BME280;13016;52.162;21.034;2023-03-23T15:29:54;99515.59;;;21.89;36.69
24996;BME280;13016;52.162;21.034;2023-03-23T15:32:24;99514.66;;;21.91;36.74
24996;BME280;13016;52.162;21.034;2023-03-23T15:34:58;99520.59;;;21.82;36.99
24996;BME280;13016;52.162;21.034;2023-03-23T15:37:34;99517.77;;;21.84;37.03
24996;BME280;13016;52.162;21.034;2023-03-23T15:40:03;99519.02;;;21.80;37.28
24996;BME280;13016;52.162;21.034;2023-03-23T15:42:33;99520.73;;;21.72;37.42
24996;BME280;13016;52.162;21.034;2023-03-23T15:47:49;99527.70;;;21.84;37.57
24996;BME280;13016;52.162;21.034;2023-03-23T15:50:34;99528.48;;;21.84;37.54
24996;BME280;13016;52.162;21.034;2023-03-23T15:53:10;99527.83;;;21.82;37.61
24996;BME280;13016;52.162;21.034;2023-03-23T15:55:42;99529.64;;;21.69;37.98
24996;BME280;13016;52.162;21.034;2023-03-23T15:58:11;99531.98;;;21.54;38.28
24996;BME280;13016;52.162;21.034;2023-03-23T16:00:37;99541.60;;;21.61;38.10
24996;BME280;13016;52.162;21.034;2023-03-23T16:03:34;99539.70;;;21.61;38.09
24996;BME280;13016;52.162;21.034;2023-03-23T16:06:03;99544.65;;;21.55;38.17
24996;BME280;13016;52.162;21.034;2023-03-23T16:08:31;99549.48;;;21.40;38.55
24996;BME280;13016;52.162;21.034;2023-03-23T16:11:01;99556.19;;;21.39;38.72
24996;BME280;13016;52.162;21.034;2023-03-23T16:13:31;99553.04;;;21.31;38.75
24996;BME280;13016;52.162;21.034;2023-03-23T16:15:56;99555.79;;;21.31;38.81
24996;BME280;13016;52.162;21.034;2023-03-23T16:18:22;99562.97;;;21.25;38.93
24996;BME280;13016;52.162;21.034;2023-03-23T16:20:48;99566.71;;;21.13;39.06
24996;BME280;13016;52.162;21.034;2023-03-23T16:26:09;99572.29;;;21.05;39.46
24996;BME280;13016;52.162;21.034;2023-03-23T16:28:54;99571.34;;;21.10;39.47
24996;BME280;13016;52.162;21.034;2023-03-23T16:31:20;99575.14;;;21.14;39.47
24996;BME280;13016;52.162;21.034;2023-03-23T16:33:45;99576.36;;;21.15;39.58
24996;BME280;13016;52.162;21.034;2023-03-23T16:36:12;99575.34;;;21.11;39.86
24996;BME280;13016;52.162;21.034;2023-03-23T16:38:38;99576.19;;;21.01;40.31
24996;BME280;13016;52.162;21.034;2023-03-23T16:41:10;99579.59;;;20.95;40.57
24996;BME280;13016;52.162;21.034;2023-03-23T16:43:35;99583.45;;;20.89;40.78
24996;BME280;13016;52.162;21.034;2023-03-23T16:46:01;99584.90;;;20.69;41.48
24996;BME280;13016;52.162;21.034;2023-03-23T16:48:26;99588.33;;;20.55;41.82
24996;BME280;13016;52.162;21.034;2023-03-23T16:50:52;99588.19;;;20.42;42.10
24996;BME280;13016;52.162;21.034;2023-03-23T16:53:18;99587.17;;;20.42;42.14
24996;BME280;13016;52.162;21.034;2023-03-23T16:55:43;99586.67;;;20.43;41.98
24996;BME280;13016;52.162;21.034;2023-03-23T16:58:29;99588.20;;;20.47;42.08
24996;BME280;13016;52.162;21.034;2023-03-23T17:00:54;99589.73;;;20.49;41.97